Elba, Idaho
Current Conditions -  °F | °C
As of 9:53 AM on Saturday 25 Oct 2014 (Local Time) from KBYI Reporting Station
Clear Clear  
Wind Chill: 65°   Ceiling: Unl
Heat Index: 65°   Visibility: 10mi
Dew Point: 34°   Wind: 17mph
Humidity: 32%   Direction: 220°SW
Pressure: 29.96"   Gusts: 23mph
Location:  42.25°N, 113.56°W
Report Text: KBYI 251553Z AUTO 22015G20KT 10SM CLR 18/01 A2996 RMK AO2 SLP117 T01830011
Loading
Personal Weather Stations






























Interactive Weather Map New forecast layout! Learn more

10-Day Weather Forecast

Advertisements
Track Severe Weather on mobile